Time;durP1;ratioP1;P1;durP2;ratioP2;P2;SDS_P1;SDS_P2;PMS_P1;PMS_P2;Temp;Humidity;BMP_temperature;BMP_pressure;BME280_temperature;BME280_humidity;BME280_pressure;Samples;Min_cycle;Max_cycle;Signal;HPM_P1;HPM_P2
2024/01/26 00:00:41;;;;;;;39.23;10.13;;;5.90;99.90;;;;;;5074094;28;20221;-50
2024/01/26 00:03:06;;;;;;;48.43;10.00;;;5.90;99.90;;;;;;5074107;28;20174;-50
2024/01/26 00:05:32;;;;;;;43.63;10.40;;;6.00;90.00;;;;;;5073958;28;20261;-50
2024/01/26 00:07:57;;;;;;;37.87;10.50;;;6.00;91.50;;;;;;5073264;28;20244;-50
2024/01/26 00:10:23;;;;;;;33.80;9.93;;;5.90;29.20;;;;;;5073525;28;20208;-50
2024/01/26 00:12:48;;;;;;;39.47;10.37;;;5.80;99.90;;;;;;5073775;28;20692;-50
2024/01/26 00:15:14;;;;;;;41.63;11.50;;;5.80;99.90;;;;;;5073351;28;20680;-50
2024/01/26 00:17:40;;;;;;;41.30;9.63;;;5.80;99.90;;;;;;5073601;28;20178;-51
2024/01/26 00:20:06;;;;;;;39.60;11.10;;;5.80;99.90;;;;;;5073795;28;20206;-51
2024/01/26 00:22:32;;;;;;;42.00;10.83;;;5.90;99.90;;;;;;5073468;28;20721;-51
2024/01/26 00:24:57;;;;;;;44.83;11.50;;;5.80;99.90;;;;;;5072699;28;20450;-50
2024/01/26 00:27:23;;;;;;;45.10;11.37;;;5.80;1.00;;;;;;5073542;28;20170;-51
2024/01/26 00:29:48;;;;;;;42.20;10.83;;;5.80;1.00;;;;;;5073529;28;20231;-50
2024/01/26 00:32:14;;;;;;;36.50;10.57;;;5.80;1.00;;;;;;5073593;28;20182;-51
2024/01/26 00:34:40;;;;;;;48.90;12.13;;;5.90;1.00;;;;;;5073597;28;20178;-50
2024/01/26 00:37:05;;;;;;;57.97;12.03;;;5.90;1.00;;;;;;5073547;28;20185;-51
2024/01/26 00:39:31;;;;;;;47.20;12.17;;;6.00;1.00;;;;;;5073393;28;20417;-50
2024/01/26 00:41:56;;;;;;;43.50;12.00;;;5.90;1.00;;;;;;5073495;28;20189;-51
2024/01/26 00:44:22;;;;;;;47.53;10.83;;;5.90;1.00;;;;;;5073303;28;20186;-50
2024/01/26 00:46:48;;;;;;;57.07;10.37;;;5.90;1.00;;;;;;5073164;28;20178;-50
2024/01/26 00:49:13;;;;;;;46.70;10.57;;;5.90;1.00;;;;;;5073494;28;20178;-50
2024/01/26 00:51:39;;;;;;;42.90;10.40;;;6.00;1.00;;;;;;5073671;28;20210;-50
2024/01/26 00:54:04;;;;;;;37.00;11.10;;;6.00;1.00;;;;;;5073301;28;20202;-50
2024/01/26 00:56:30;;;;;;;47.73;10.80;;;6.00;1.00;;;;;;5073381;28;20636;-50
2024/01/26 00:58:56;;;;;;;42.60;11.77;;;6.00;1.00;;;;;;5073329;28;20170;-50
2024/01/26 01:01:23;;;;;;;39.70;11.83;;;6.00;1.00;;;;;;5073355;28;20432;-50
2024/01/26 01:03:49;;;;;;;46.83;11.17;;;6.10;1.00;;;;;;5073394;28;20692;-50
2024/01/26 01:06:14;;;;;;;41.27;10.23;;;6.10;99.90;;;;;;5073492;28;20416;-50
2024/01/26 01:08:40;;;;;;;49.07;10.40;;;6.10;99.90;;;;;;5072933;28;20244;-50
2024/01/26 01:11:06;;;;;;;46.63;11.47;;;6.00;99.90;;;;;;5073365;28;20209;-50
2024/01/26 01:13:31;;;;;;;39.10;11.20;;;5.90;99.90;;;;;;5073324;28;20248;-50
2024/01/26 01:16:00;;;;;;;40.90;10.30;;;6.00;1.00;;;;;;5073031;28;20193;-51
2024/01/26 01:18:26;;;;;;;41.20;9.90;;;6.10;1.00;;;;;;5073265;28;20190;-51
2024/01/26 01:20:51;;;;;;;44.53;10.90;;;6.00;1.00;;;;;;5073161;28;20416;-51
2024/01/26 01:23:17;;;;;;;37.53;10.27;;;6.10;1.00;;;;;;5073374;28;20188;-50
2024/01/26 01:25:43;;;;;;;30.80;9.87;;;6.10;99.90;;;;;;5072914;28;20170;-51
2024/01/26 01:28:09;;;;;;;32.67;9.43;;;6.10;99.90;;;;;;5073036;28;20178;-50
2024/01/26 01:30:34;;;;;;;45.53;11.90;;;6.10;99.90;;;;;;5072989;28;20260;-50
2024/01/26 01:33:00;;;;;;;41.00;11.30;;;6.20;99.90;;;;;;5073281;28;20181;-50
2024/01/26 01:35:26;;;;;;;42.93;10.30;;;6.20;99.90;;;;;;5073393;28;20269;-50
2024/01/26 01:37:51;;;;;;;28.70;9.67;;;6.10;99.90;;;;;;5076815;28;20178;-51
2024/01/26 01:40:17;;;;;;;39.43;9.70;;;6.10;99.90;;;;;;5076505;28;20185;-50
2024/01/26 01:42:42;;;;;;;27.10;9.13;;;6.10;99.90;;;;;;5076442;28;20182;-51
2024/01/26 01:45:15;;;;;;;46.63;11.03;;;6.10;99.90;;;;;;5076549;28;20235;-50
2024/01/26 01:47:44;;;;;;;45.13;10.50;;;6.20;1.00;;;;;;5076744;28;20210;-50
2024/01/26 01:50:10;;;;;;;43.47;11.07;;;6.20;1.00;;;;;;5076025;28;20463;-50
2024/01/26 01:52:41;;;;;;;41.83;10.37;;;6.10;1.00;;;;;;5076737;28;20793;-50
2024/01/26 01:55:13;;;;;;;51.63;10.70;;;6.00;1.00;;;;;;5076042;28;20912;-51
2024/01/26 01:57:40;;;;;;;46.20;10.83;;;6.20;99.90;;;;;;5075988;28;20969;-51
2024/01/26 02:00:15;;;;;;;48.17;11.60;;;6.10;99.90;;;;;;5076286;28;20931;-50
2024/01/26 02:02:45;;;;;;;37.87;9.83;;;6.10;1.00;;;;;;5076523;28;20427;-50
2024/01/26 02:05:11;;;;;;;36.30;11.20;;;6.10;1.00;;;;;;5076130;28;20439;-50
2024/01/26 02:07:36;;;;;;;45.57;10.77;;;6.00;1.00;;;;;;5075747;28;20467;-51
2024/01/26 02:10:04;;;;;;;58.67;12.50;;;6.00;31.30;;;;;;5076125;28;20512;-51
2024/01/26 02:12:29;;;;;;;36.20;11.00;;;6.10;99.90;;;;;;5076110;28;20186;-51
2024/01/26 02:14:56;;;;;;;45.43;12.10;;;6.00;99.90;;;;;;5076005;28;20423;-51
2024/01/26 02:17:30;;;;;;;43.80;11.50;;;6.10;1.00;;;;;;5075738;28;20223;-50
2024/01/26 02:19:55;;;;;;;42.37;12.50;;;6.00;1.00;;;;;;5075615;28;20902;-51
2024/01/26 02:22:21;;;;;;;55.47;12.63;;;6.00;1.00;;;;;;5075799;28;20416;-50
2024/01/26 02:24:47;;;;;;;50.77;12.40;;;6.10;99.90;;;;;;5075696;28;20276;-51
2024/01/26 02:27:13;;;;;;;33.23;12.30;;;6.10;99.90;;;;;;5075774;28;20209;-51
2024/01/26 02:29:38;;;;;;;46.63;12.17;;;6.10;99.90;;;;;;5075864;28;20182;-51
2024/01/26 02:32:05;;;;;;;49.13;13.30;;;6.10;99.90;;;;;;5075534;28;20482;-50
2024/01/26 02:34:31;;;;;;;40.30;12.10;;;6.10;1.00;;;;;;5075709;28;20193;-50
2024/01/26 02:36:56;;;;;;;38.53;12.77;;;6.00;1.00;;;;;;5075501;28;20487;-50
2024/01/26 02:39:22;;;;;;;48.17;13.60;;;6.10;99.90;;;;;;5075443;28;20606;-50
2024/01/26 02:41:47;;;;;;;37.70;12.97;;;6.20;1.00;;;;;;5075402;28;20274;-50
2024/01/26 02:44:13;;;;;;;48.33;12.73;;;6.10;17.40;;;;;;5075033;28;20284;-50
2024/01/26 02:46:38;;;;;;;44.13;13.40;;;6.10;99.90;;;;;;5074579;28;20182;-51
2024/01/26 02:49:05;;;;;;;47.43;13.90;;;6.00;1.00;;;;;;5074041;28;20207;-51
2024/01/26 02:51:31;;;;;;;44.37;12.77;;;6.00;99.90;;;;;;5075473;28;20220;-50
2024/01/26 02:53:57;;;;;;;57.60;13.20;;;6.00;1.00;;;;;;5075131;28;20811;-50
2024/01/26 02:56:23;;;;;;;38.53;12.80;;;6.00;99.90;;;;;;5075121;28;20231;-51
2024/01/26 02:58:48;;;;;;;45.07;13.07;;;5.90;23.40;;;;;;5074832;28;20515;-50
2024/01/26 03:01:14;;;;;;;53.07;12.67;;;6.00;99.90;;;;;;5074837;28;20194;-50
2024/01/26 03:03:40;;;;;;;55.93;14.30;;;6.00;63.60;;;;;;5074947;28;20183;-50
2024/01/26 03:06:06;;;;;;;53.83;14.30;;;6.00;17.80;;;;;;5074878;28;20193;-51
2024/01/26 03:08:32;;;;;;;40.27;13.07;;;6.10;99.90;;;;;;5074521;28;20460;-50
2024/01/26 03:10:57;;;;;;;54.80;14.33;;;6.10;1.00;;;;;;5074906;28;20271;-50
2024/01/26 03:13:23;;;;;;;48.63;14.63;;;6.00;12.90;;;;;;5074750;28;20613;-50
2024/01/26 03:15:51;;;;;;;54.83;15.40;;;6.10;99.90;;;;;;5074614;28;20228;-50
2024/01/26 03:18:17;;;;;;;48.93;14.50;;;6.10;1.00;;;;;;5074458;28;20653;-50
2024/01/26 03:20:43;;;;;;;45.30;14.20;;;6.00;1.00;;;;;;5074893;28;20419;-51
2024/01/26 03:23:09;;;;;;;43.13;14.30;;;6.10;99.90;;;;;;5074881;28;20488;-50
2024/01/26 03:25:34;;;;;;;48.53;14.03;;;6.10;99.90;;;;;;5074432;28;20560;-50
2024/01/26 03:28:00;;;;;;;44.90;13.20;;;6.10;1.00;;;;;;5074788;28;20193;-50
2024/01/26 03:30:26;;;;;;;42.50;14.40;;;6.20;99.90;;;;;;5074644;28;20267;-51
2024/01/26 03:32:51;;;;;;;47.10;15.50;;;6.10;99.90;;;;;;5074358;28;20594;-50
2024/01/26 03:35:17;;;;;;;47.13;14.53;;;6.30;1.00;;;;;;5074273;28;20201;-50
2024/01/26 03:37:42;;;;;;;53.10;14.43;;;6.20;1.00;;;;;;5074449;28;20181;-50
2024/01/26 03:40:08;;;;;;;56.17;16.50;;;6.20;1.00;;;;;;5074447;28;20650;-50
2024/01/26 03:42:34;;;;;;;43.30;13.23;;;6.30;1.00;;;;;;5074185;28;20185;-50
2024/01/26 03:45:00;;;;;;;54.37;17.03;;;6.30;1.00;;;;;;5074022;28;20181;-50
2024/01/26 03:47:25;;;;;;;37.70;13.87;;;6.30;1.00;;;;;;5073998;28;20273;-50
2024/01/26 03:49:52;;;;;;;44.10;16.07;;;6.40;1.00;;;;;;5073926;28;20490;-51
2024/01/26 03:52:18;;;;;;;35.83;15.10;;;6.40;1.00;;;;;;5074259;28;20194;-51
2024/01/26 03:54:43;;;;;;;35.50;13.93;;;6.40;1.00;;;;;;5073993;28;20462;-50
2024/01/26 03:57:09;;;;;;;46.67;15.70;;;6.50;1.00;;;;;;5074002;28;20185;-51
2024/01/26 03:59:34;;;;;;;50.27;16.80;;;6.50;9.90;;;;;;5073570;28;20200;-51
2024/01/26 04:02:00;;;;;;;44.20;15.80;;;6.60;23.80;;;;;;5073721;28;20186;-51
2024/01/26 04:04:26;;;;;;;48.90;16.10;;;6.70;80.50;;;;;;5074028;28;20186;-51
2024/01/26 04:06:51;;;;;;;44.50;15.37;;;6.80;75.10;;;;;;5073429;28;20709;-51
2024/01/26 04:09:17;;;;;;;46.97;17.10;;;6.80;75.10;;;;;;5073713;28;20487;-51
2024/01/26 04:11:43;;;;;;;50.17;17.70;;;6.80;68.70;;;;;;5073469;28;20221;-51
2024/01/26 04:14:08;;;;;;;44.77;16.80;;;6.80;85.60;;;;;;5073633;28;20206;-51
2024/01/26 04:16:34;;;;;;;66.60;18.07;;;6.80;96.40;;;;;;5073564;28;20189;-51
2024/01/26 04:18:59;;;;;;;49.30;16.80;;;6.80;99.90;;;;;;5073625;28;20185;-51
2024/01/26 04:21:25;;;;;;;51.73;18.40;;;6.80;99.90;;;;;;5073570;28;20224;-51
2024/01/26 04:23:50;;;;;;;48.87;17.60;;;6.90;99.90;;;;;;5073481;28;20223;-51
2024/01/26 04:26:18;;;;;;;60.97;19.00;;;7.00;99.90;;;;;;5073710;28;20236;-51
2024/01/26 04:28:43;;;;;;;52.00;18.73;;;6.90;99.90;;;;;;5073677;28;20182;-51
2024/01/26 04:31:09;;;;;;;62.17;18.43;;;7.00;99.90;;;;;;5073901;28;20456;-51
2024/01/26 04:33:35;;;;;;;48.40;18.73;;;7.00;99.90;;;;;;5073881;28;20185;-50
2024/01/26 04:36:00;;;;;;;51.33;17.33;;;7.00;99.90;;;;;;5073641;28;20420;-50
2024/01/26 04:38:26;;;;;;;61.80;19.13;;;7.10;99.90;;;;;;5073717;28;20184;-50
2024/01/26 04:40:52;;;;;;;49.37;18.57;;;7.00;99.90;;;;;;5073579;28;20595;-50
2024/01/26 04:43:18;;;;;;;48.70;18.60;;;7.00;99.90;;;;;;5073370;28;20185;-50
2024/01/26 04:45:44;;;;;;;61.67;19.07;;;7.10;99.90;;;;;;5073543;28;20415;-50
2024/01/26 04:48:10;;;;;;;52.50;19.30;;;7.20;99.90;;;;;;5073198;28;20503;-50
2024/01/26 04:50:35;;;;;;;53.80;17.73;;;7.30;99.90;;;;;;5073470;28;20206;-50
2024/01/26 04:53:01;;;;;;;49.10;18.40;;;7.40;99.90;;;;;;5073122;28;20642;-50
2024/01/26 04:55:28;;;;;;;54.03;18.37;;;7.40;99.90;;;;;;5073020;28;20185;-50
2024/01/26 04:57:54;;;;;;;61.77;18.67;;;7.50;99.90;;;;;;5073398;28;20216;-50
2024/01/26 05:00:19;;;;;;;57.67;19.20;;;7.50;99.90;;;;;;5073488;28;20440;-50
2024/01/26 05:02:45;;;;;;;47.33;17.63;;;7.50;99.90;;;;;;5072826;28;20178;-50
2024/01/26 05:05:14;;;;;;;49.90;19.43;;;7.50;99.90;;;;;;5073288;28;20201;-50
2024/01/26 05:07:40;;;;;;;45.70;18.77;;;7.50;99.90;;;;;;5072940;28;20229;-50
2024/01/26 05:10:06;;;;;;;52.70;18.73;;;7.60;99.90;;;;;;5073114;28;20490;-50
2024/01/26 05:12:32;;;;;;;56.10;19.70;;;7.60;99.90;;;;;;5076778;28;20179;-50
2024/01/26 05:14:58;;;;;;;56.90;19.80;;;7.60;99.90;;;;;;5076887;28;20436;-51
2024/01/26 05:17:23;;;;;;;63.00;20.27;;;7.60;99.90;;;;;;5076853;28;20942;-50
2024/01/26 05:19:49;;;;;;;64.00;20.03;;;7.60;99.90;;;;;;5076982;28;20238;-50
2024/01/26 05:22:14;;;;;;;66.33;22.00;;;7.60;99.90;;;;;;5076931;28;20247;-50
2024/01/26 05:24:40;;;;;;;51.40;20.93;;;7.70;99.90;;;;;;5076746;28;20178;-50
2024/01/26 05:27:07;;;;;;;50.50;20.70;;;7.80;99.90;;;;;;5077075;28;20571;-50
2024/01/26 05:29:33;;;;;;;53.60;21.67;;;7.80;99.90;;;;;;5076913;28;20182;-51
2024/01/26 05:31:58;;;;;;;53.63;19.87;;;7.80;99.90;;;;;;5076702;28;20462;-50
2024/01/26 05:34:24;;;;;;;48.60;21.47;;;7.90;99.90;;;;;;5076625;28;20547;-50
2024/01/26 05:36:49;;;;;;;52.33;20.30;;;7.80;99.90;;;;;;5076664;28;20640;-50
2024/01/26 05:39:15;;;;;;;52.50;19.80;;;7.90;99.90;;;;;;5076484;28;20260;-50
2024/01/26 05:41:40;;;;;;;47.87;21.00;;;7.90;99.90;;;;;;5076587;28;20209;-51
2024/01/26 05:44:06;;;;;;;49.30;21.40;;;7.80;99.90;;;;;;5076517;28;20683;-50
2024/01/26 05:46:32;;;;;;;51.03;20.53;;;7.80;99.90;;;;;;5076971;28;20186;-51
2024/01/26 05:48:58;;;;;;;47.27;18.80;;;7.90;99.90;;;;;;5076280;28;20432;-51
2024/01/26 05:51:24;;;;;;;51.80;21.40;;;7.90;99.90;;;;;;5076566;28;20819;-51
2024/01/26 05:53:52;;;;;;;52.27;20.13;;;7.90;99.90;;;;;;5076312;28;20416;-51
2024/01/26 05:56:18;;;;;;;52.87;21.63;;;7.90;99.90;;;;;;5076415;28;20424;-50
2024/01/26 05:58:44;;;;;;;48.07;20.70;;;7.90;99.90;;;;;;5076002;28;20971;-51
2024/01/26 06:01:09;;;;;;;44.67;19.50;;;7.90;99.90;;;;;;5076176;28;20413;-51
2024/01/26 06:03:35;;;;;;;44.27;18.50;;;7.90;99.90;;;;;;5076572;28;20428;-50
2024/01/26 06:06:01;;;;;;;49.43;20.23;;;7.90;99.90;;;;;;5076502;28;20178;-50
2024/01/26 06:08:26;;;;;;;44.80;19.90;;;7.90;99.90;;;;;;5076044;28;20310;-50
2024/01/26 06:10:52;;;;;;;47.97;20.50;;;7.90;99.90;;;;;;5075949;28;20558;-50
2024/01/26 06:13:18;;;;;;;44.20;18.93;;;7.90;99.90;;;;;;5076045;28;20550;-50
2024/01/26 06:15:44;;;;;;;52.40;20.30;;;7.90;99.90;;;;;;5076203;28;20174;-50
2024/01/26 06:18:10;;;;;;;51.10;19.63;;;7.90;99.90;;;;;;5075643;28;20421;-50
2024/01/26 06:20:35;;;;;;;53.20;20.80;;;8.00;99.90;;;;;;5075843;28;20186;-50
2024/01/26 06:23:01;;;;;;;51.43;21.13;;;8.00;99.90;;;;;;5074557;28;20208;-50
2024/01/26 06:25:27;;;;;;;53.93;21.03;;;8.00;99.90;;;;;;5075435;28;20182;-50
2024/01/26 06:27:52;;;;;;;56.40;21.40;;;8.00;99.90;;;;;;5075294;28;20177;-50
2024/01/26 06:30:18;;;;;;;52.70;20.43;;;8.10;99.90;;;;;;5075013;28;20678;-50
2024/01/26 06:32:44;;;;;;;61.13;21.00;;;8.10;99.90;;;;;;5075307;28;20225;-50
2024/01/26 06:35:10;;;;;;;55.80;20.00;;;8.10;99.90;;;;;;5075769;28;20186;-50
2024/01/26 06:37:36;;;;;;;55.73;20.93;;;8.10;99.90;;;;;;5075561;28;20182;-50
2024/01/26 06:40:02;;;;;;;51.97;20.90;;;8.10;99.90;;;;;;5075530;28;20771;-50
2024/01/26 06:42:29;;;;;;;53.50;21.17;;;8.10;99.90;;;;;;5075535;28;20657;-50
2024/01/26 06:44:55;;;;;;;59.27;21.73;;;8.10;99.90;;;;;;5075395;28;20416;-50
2024/01/26 06:47:21;;;;;;;51.97;21.40;;;8.10;99.90;;;;;;5075395;28;20419;-50
2024/01/26 06:49:47;;;;;;;49.80;19.90;;;8.10;99.90;;;;;;5075210;28;20532;-51
2024/01/26 06:52:12;;;;;;;55.33;20.77;;;8.10;99.90;;;;;;5075041;28;20932;-51
2024/01/26 06:54:38;;;;;;;57.70;20.83;;;8.20;99.90;;;;;;5075322;28;20178;-50
2024/01/26 06:57:05;;;;;;;64.20;22.70;;;8.30;99.90;;;;;;5075322;28;20190;-50
2024/01/26 06:59:31;;;;;;;56.47;21.70;;;8.20;99.90;;;;;;5074842;28;20420;-51
2024/01/26 07:01:56;;;;;;;56.23;22.00;;;8.30;99.90;;;;;;5075367;28;20429;-51
2024/01/26 07:04:22;;;;;;;61.97;23.10;;;8.30;99.90;;;;;;5075242;28;20582;-51
2024/01/26 07:06:47;;;;;;;56.60;24.50;;;8.30;99.90;;;;;;5074901;28;20705;-51
2024/01/26 07:09:13;;;;;;;50.37;21.83;;;8.40;99.90;;;;;;5075384;28;20566;-51
2024/01/26 07:11:38;;;;;;;52.53;23.67;;;8.50;99.90;;;;;;5074564;28;20208;-51
2024/01/26 07:14:07;;;;;;;55.17;24.30;;;8.50;99.90;;;;;;5075094;28;20185;-50
2024/01/26 07:16:32;;;;;;;59.27;25.23;;;8.60;99.90;;;;;;5074919;28;20174;-50
2024/01/26 07:18:58;;;;;;;59.90;24.40;;;8.70;99.90;;;;;;5075036;28;20980;-51
2024/01/26 07:21:23;;;;;;;56.10;25.80;;;8.80;99.90;;;;;;5074875;28;20182;-51
2024/01/26 07:23:49;;;;;;;57.13;25.20;;;8.80;99.90;;;;;;5074883;28;20182;-51
2024/01/26 07:26:21;;;;;;;77.17;27.93;;;8.90;99.90;;;;;;5074580;28;20206;-51
2024/01/26 07:28:48;;;;;;;52.87;23.50;;;8.90;99.90;;;;;;5074716;28;20182;-51
2024/01/26 07:31:14;;;;;;;60.50;26.40;;;8.90;99.90;;;;;;5074669;28;20555;-50
2024/01/26 07:33:39;;;;;;;52.77;25.50;;;9.00;99.90;;;;;;5074236;28;20504;-51
2024/01/26 07:36:05;;;;;;;52.67;25.00;;;9.00;99.90;;;;;;5074425;28;20423;-51
2024/01/26 07:38:31;;;;;;;58.87;25.83;;;9.00;99.90;;;;;;5074412;28;20182;-50
2024/01/26 07:40:59;;;;;;;57.43;25.20;;;9.00;99.90;;;;;;5074308;28;20197;-50
2024/01/26 07:43:25;;;;;;;58.50;26.47;;;9.00;99.90;;;;;;5074277;28;20514;-51
2024/01/26 07:45:51;;;;;;;68.43;28.33;;;9.00;99.90;;;;;;5074004;28;20423;-51
2024/01/26 07:48:16;;;;;;;63.97;27.30;;;9.00;99.90;;;;;;5073867;28;20204;-51
2024/01/26 07:50:42;;;;;;;58.77;25.50;;;9.00;99.90;;;;;;5073707;28;20202;-51
2024/01/26 07:53:08;;;;;;;52.40;25.70;;;9.10;99.90;;;;;;5074093;28;20174;-51
2024/01/26 07:55:34;;;;;;;52.87;24.10;;;9.10;99.90;;;;;;5074062;28;20579;-51
2024/01/26 07:58:00;;;;;;;48.97;24.90;;;9.10;99.90;;;;;;5073758;28;20424;-51
2024/01/26 08:00:26;;;;;;;47.47;23.83;;;9.10;99.90;;;;;;5073877;28;20228;-51
2024/01/26 08:02:52;;;;;;;51.77;24.80;;;9.10;99.90;;;;;;5073599;28;20189;-51
2024/01/26 08:05:18;;;;;;;52.90;24.13;;;9.10;99.90;;;;;;5074074;28;20424;-51
2024/01/26 08:07:44;;;;;;;48.47;24.63;;;9.20;99.90;;;;;;5073519;28;20494;-51
2024/01/26 08:10:10;;;;;;;49.63;23.37;;;9.20;99.90;;;;;;5073670;28;20182;-51
2024/01/26 08:12:42;;;;;;;47.83;23.27;;;9.30;99.90;;;;;;5073550;28;20210;-51
2024/01/26 08:15:08;;;;;;;44.23;23.40;;;9.30;99.90;;;;;;5074039;28;20420;-51
2024/01/26 08:17:34;;;;;;;54.77;23.30;;;9.30;99.90;;;;;;5073865;28;20413;-50
2024/01/26 08:20:02;;;;;;;51.10;23.07;;;9.40;99.90;;;;;;5073670;28;20214;-50
2024/01/26 08:22:28;;;;;;;50.53;23.00;;;9.40;93.60;;;;;;5073583;28;20197;-50
2024/01/26 08:24:53;;;;;;;48.57;22.93;;;9.40;99.90;;;;;;5073707;28;20416;-51
2024/01/26 08:27:19;;;;;;;49.43;23.67;;;9.40;99.90;;;;;;5073615;28;20668;-50
2024/01/26 08:29:44;;;;;;;48.07;24.00;;;9.40;99.60;;;;;;5073577;28;20174;-50
2024/01/26 08:32:10;;;;;;;48.47;23.33;;;9.40;99.90;;;;;;5073224;28;20205;-50
2024/01/26 08:34:36;;;;;;;50.23;23.07;;;9.50;94.60;;;;;;5073578;28;20282;-50
2024/01/26 08:37:03;;;;;;;47.40;22.40;;;9.50;90.10;;;;;;5073797;28;20497;-50
2024/01/26 08:39:29;;;;;;;44.87;21.50;;;9.50;89.20;;;;;;5073625;28;20431;-50
2024/01/26 08:41:55;;;;;;;42.30;21.13;;;9.60;94.40;;;;;;5073249;28;20447;-50
2024/01/26 08:44:21;;;;;;;42.37;22.20;;;9.60;99.00;;;;;;5073422;28;20487;-50
2024/01/26 08:46:47;;;;;;;43.07;21.47;;;9.60;99.90;;;;;;5072389;28;20412;-50
2024/01/26 08:49:12;;;;;;;46.23;21.03;;;9.60;99.90;;;;;;5073280;28;21084;-49
2024/01/26 08:51:38;;;;;;;45.40;21.23;;;9.60;99.90;;;;;;5073225;28;20591;-49
2024/01/26 08:54:04;;;;;;;39.60;21.10;;;9.60;99.90;;;;;;5072278;28;20251;-49
2024/01/26 08:56:30;;;;;;;42.07;22.00;;;9.60;99.90;;;;;;5073055;28;20182;-49
2024/01/26 08:58:55;;;;;;;43.87;22.10;;;9.60;99.90;;;;;;5073405;28;20182;-49
2024/01/26 09:01:24;;;;;;;40.77;20.80;;;9.60;99.90;;;;;;5073106;28;20973;-49
2024/01/26 09:03:50;;;;;;;41.53;20.50;;;9.50;99.90;;;;;;5073519;28;20182;-49
2024/01/26 09:06:16;;;;;;;43.17;21.30;;;9.50;99.90;;;;;;5073101;28;20455;-49
2024/01/26 09:08:41;;;;;;;37.63;20.00;;;9.60;99.90;;;;;;5073048;28;20499;-49
2024/01/26 09:11:07;;;;;;;41.27;20.43;;;9.60;99.90;;;;;;5072897;28;20206;-49
2024/01/26 09:13:32;;;;;;;42.00;20.10;;;9.50;99.90;;;;;;5072872;28;20182;-49
2024/01/26 09:15:58;;;;;;;34.97;19.97;;;9.50;99.90;;;;;;5072835;28;20232;-49
2024/01/26 09:18:24;;;;;;;39.10;20.50;;;9.50;99.90;;;;;;5073390;28;20178;-49
2024/01/26 09:20:49;;;;;;;38.50;19.47;;;9.50;99.90;;;;;;5073065;28;20226;-49
2024/01/26 09:23:16;;;;;;;41.00;21.00;;;9.60;99.90;;;;;;5073127;28;20178;-50
2024/01/26 09:25:43;;;;;;;38.90;19.50;;;9.50;99.90;;;;;;5072828;28;20646;-50
2024/01/26 09:28:08;;;;;;;39.27;20.13;;;9.60;99.90;;;;;;5072955;28;20775;-49
2024/01/26 09:30:34;;;;;;;34.83;19.00;;;9.60;99.90;;;;;;5072683;28;20452;-49
2024/01/26 09:32:59;;;;;;;34.20;18.27;;;9.60;99.90;;;;;;5072815;28;20711;-49
2024/01/26 09:35:25;;;;;;;36.77;18.60;;;9.50;99.90;;;;;;5072796;28;20179;-50
2024/01/26 09:37:51;;;;;;;36.47;16.97;;;9.50;99.90;;;;;;5072839;28;20277;-50
2024/01/26 09:40:18;;;;;;;32.57;16.83;;;9.60;99.90;;;;;;5073056;28;20217;-50
2024/01/26 09:42:44;;;;;;;29.00;15.00;;;9.60;99.90;;;;;;5072538;28;20694;-50
2024/01/26 09:45:11;;;;;;;28.97;16.23;;;9.60;99.90;;;;;;5072630;28;20454;-49
2024/01/26 09:47:39;;;;;;;32.80;16.20;;;9.60;99.90;;;;;;5072481;28;20186;-49
2024/01/26 09:50:06;;;;;;;30.20;16.93;;;9.70;99.90;;;;;;5072503;28;20464;-48
2024/01/26 09:52:34;;;;;;;33.90;17.10;;;9.70;99.90;;;;;;5073037;28;20420;-49
2024/01/26 09:55:01;;;;;;;30.30;16.70;;;9.70;99.90;;;;;;5072749;28;20428;-49
2024/01/26 09:57:30;;;;;;;30.13;15.80;;;9.70;99.90;;;;;;5074909;28;20416;-49
2024/01/26 09:59:55;;;;;;;30.80;15.93;;;9.70;99.90;;;;;;5076666;28;20458;-50
2024/01/26 10:02:26;;;;;;;32.10;15.10;;;9.70;99.90;;;;;;5076362;28;20511;-50
2024/01/26 10:04:51;;;;;;;30.97;16.93;;;9.70;99.90;;;;;;5076172;28;20664;-49
2024/01/26 10:07:17;;;;;;;33.07;15.70;;;9.70;99.90;;;;;;5075774;28;20472;-49
2024/01/26 10:09:43;;;;;;;29.73;17.23;;;9.80;99.90;;;;;;5075675;28;20655;-49
2024/01/26 10:12:10;;;;;;;35.23;16.60;;;9.80;99.90;;;;;;5075590;28;20221;-50
2024/01/26 10:14:36;;;;;;;30.20;17.17;;;9.80;99.90;;;;;;5075580;28;20427;-50
2024/01/26 10:17:01;;;;;;;28.83;16.27;;;9.80;99.90;;;;;;5076065;28;20411;-49
2024/01/26 10:19:27;;;;;;;26.40;15.60;;;9.90;99.90;;;;;;5075739;28;20408;-50
2024/01/26 10:21:54;;;;;;;27.30;14.73;;;9.90;99.90;;;;;;5076111;28;20274;-50
2024/01/26 10:24:24;;;;;;;23.27;14.73;;;10.00;99.90;;;;;;5076210;28;20408;-50
2024/01/26 10:26:51;;;;;;;24.20;15.30;;;10.00;99.90;;;;;;5075916;28;20426;-50
2024/01/26 10:29:16;;;;;;;25.10;14.83;;;10.00;99.90;;;;;;5076128;28;20504;-50
2024/01/26 10:31:42;;;;;;;24.10;13.77;;;10.00;99.90;;;;;;5075604;28;20546;-49
2024/01/26 10:34:14;;;;;;;26.00;14.63;;;10.00;99.90;;;;;;5075975;28;20626;-49
2024/01/26 10:36:45;;;;;;;22.47;14.50;;;10.10;99.90;;;;;;5075837;28;20186;-49
2024/01/26 10:39:24;;;;;;;23.80;14.97;;;10.10;99.90;;;;;;5075925;28;20439;-49
2024/01/26 10:41:52;;;;;;;21.17;13.50;;;10.00;99.90;;;;;;5075852;28;20405;-49
2024/01/26 10:44:18;;;;;;;21.27;14.43;;;10.10;99.90;;;;;;5075665;28;20423;-49
2024/01/26 10:46:45;;;;;;;22.40;13.60;;;10.10;99.90;;;;;;5074520;28;20420;-48
2024/01/26 10:49:12;;;;;;;22.40;13.07;;;10.10;99.90;;;;;;5074470;28;20416;-49
2024/01/26 10:51:38;;;;;;;20.27;12.60;;;10.20;99.90;;;;;;5075038;28;20970;-49
2024/01/26 10:54:12;;;;;;;19.20;11.50;;;10.20;99.90;;;;;;5074871;28;20912;-49
2024/01/26 10:56:39;;;;;;;17.43;11.27;;;10.30;99.90;;;;;;5074839;28;20499;-48
2024/01/26 10:59:10;;;;;;;16.60;11.40;;;10.30;99.90;;;;;;5074985;28;20412;-48
2024/01/26 11:01:37;;;;;;;17.50;11.33;;;10.20;99.90;;;;;;5075106;28;20492;-49
2024/01/26 11:04:03;;;;;;;18.77;11.00;;;10.20;99.90;;;;;;5075116;28;20408;-50
2024/01/26 11:06:31;;;;;;;15.87;11.27;;;10.20;99.90;;;;;;5074759;28;20756;-49
2024/01/26 11:09:05;;;;;;;19.30;11.17;;;10.20;99.90;;;;;;5074048;28;20405;-49
2024/01/26 11:11:35;;;;;;;17.73;10.60;;;10.20;99.90;;;;;;5074631;28;20496;-48
2024/01/26 11:14:02;;;;;;;13.17;9.97;;;10.30;99.90;;;;;;5074446;28;20416;-48
2024/01/26 11:16:35;;;;;;;15.37;10.70;;;10.30;99.90;;;;;;5074510;28;20412;-49
2024/01/26 11:19:02;;;;;;;16.87;9.97;;;10.30;99.90;;;;;;5074363;28;20413;-49
2024/01/26 11:21:41;;;;;;;13.30;9.30;;;10.30;99.90;;;;;;5074357;28;20418;-49
2024/01/26 11:24:18;;;;;;;14.20;9.87;;;10.40;99.90;;;;;;5074379;28;20409;-49
2024/01/26 11:27:01;;;;;;;13.30;9.13;;;10.40;99.90;;;;;;5073841;28;20428;-48
2024/01/26 11:29:37;;;;;;;12.97;9.70;;;10.40;99.90;;;;;;5073743;28;20896;-49
2024/01/26 11:32:16;;;;;;;13.60;9.50;;;10.40;99.90;;;;;;5074437;28;20452;-49
2024/01/26 11:34:41;;;;;;;13.93;9.70;;;10.40;99.90;;;;;;5073684;28;20409;-48
2024/01/26 11:37:14;;;;;;;13.00;9.70;;;10.40;99.90;;;;;;5074349;28;20752;-48
2024/01/26 11:39:40;;;;;;;10.20;7.60;;;10.50;99.90;;;;;;5074076;28;20261;-49
2024/01/26 11:42:10;;;;;;;12.27;8.13;;;10.50;99.90;;;;;;5074255;28;20456;-48
2024/01/26 11:44:41;;;;;;;11.03;6.80;;;10.60;99.90;;;;;;5073999;28;20437;-49
2024/01/26 11:47:10;;;;;;;5.57;4.23;;;10.50;99.90;;;;;;5074086;28;20440;-49
2024/01/26 11:49:39;;;;;;;4.00;3.60;;;10.40;99.90;;;;;;5073807;28;20416;-49
2024/01/26 11:52:05;;;;;;;5.20;3.03;;;10.20;99.90;;;;;;5072853;28;20467;-49
2024/01/26 11:54:34;;;;;;;3.60;2.33;;;10.20;99.90;;;;;;5076783;28;20440;-49
2024/01/26 11:57:02;;;;;;;4.00;1.87;;;10.00;67.10;;;;;;5070493;28;20195;-50
2024/01/26 11:59:31;;;;;;;7.00;1.93;;;9.90;1.00;;;;;;5066327;28;20777;-50
2024/01/26 12:01:56;;;;;;;3.53;1.67;;;9.90;1.00;;;;;;5060104;28;20490;-49
2024/01/26 12:04:23;;;;;;;6.50;1.73;;;9.80;1.00;;;;;;5071233;28;20749;-49
2024/01/26 12:06:50;;;;;;;13.20;3.00;;;9.90;1.00;;;;;;5070336;28;20716;-49
2024/01/26 12:09:15;;;;;;;9.17;1.83;;;9.70;99.90;;;;;;5072144;28;20515;-49
2024/01/26 12:11:42;;;;;;;12.37;2.17;;;9.60;99.90;;;;;;5071053;28;20547;-49
2024/01/26 12:14:07;;;;;;;16.07;3.00;;;9.40;99.90;;;;;;5075837;28;20795;-49
2024/01/26 12:16:33;;;;;;;15.17;2.40;;;9.30;99.90;;;;;;5078608;28;20507;-50
2024/01/26 12:19:02;;;;;;;17.47;3.70;;;9.20;99.90;;;;;;5071751;28;20189;-49
2024/01/26 12:21:28;;;;;;;17.50;2.80;;;9.10;1.00;;;;;;5084407;28;20543;-49
2024/01/26 12:23:54;;;;;;;16.17;3.03;;;9.10;1.00;;;;;;5080538;28;20440;-49
2024/01/26 12:26:20;;;;;;;15.13;3.10;;;8.90;1.00;;;;;;5073125;28;20427;-49
2024/01/26 12:28:46;;;;;;;20.97;3.07;;;8.90;1.00;;;;;;5072879;28;20192;-49
2024/01/26 12:31:11;;;;;;;21.57;3.27;;;8.80;1.00;;;;;;5074053;28;20316;-49
2024/01/26 12:33:37;;;;;;;15.40;3.47;;;8.80;99.90;;;;;;5073295;28;20212;-49